createdAt,value
2018-04-30T00:01:54.023Z,19.30
2018-04-30T00:07:59.202Z,18.90
2018-04-30T00:14:04.449Z,18.70
2018-04-30T00:20:08.914Z,18.70
2018-04-30T00:26:13.286Z,18.60
2018-04-30T00:32:17.638Z,18.50
2018-04-30T00:38:23.120Z,18.30
2018-04-30T00:44:27.489Z,18.20
2018-04-30T00:50:31.863Z,18.10
2018-04-30T00:56:36.237Z,18.00
2018-04-30T01:02:40.638Z,17.90
2018-04-30T01:08:45.792Z,17.60
2018-04-30T01:14:50.386Z,17.50
2018-04-30T01:20:54.806Z,17.40
2018-04-30T01:26:59.181Z,17.40
2018-04-30T01:33:03.539Z,17.30
2018-04-30T01:39:08.692Z,17.10
2018-04-30T01:45:13.130Z,17.10
2018-04-30T01:51:17.503Z,16.90
2018-04-30T01:57:22.308Z,16.80
2018-04-30T02:03:26.675Z,16.70
2018-04-30T02:09:31.063Z,16.80
2018-04-30T02:15:35.492Z,16.80
2018-04-30T02:21:39.878Z,16.80
2018-04-30T02:27:44.244Z,16.80
2018-04-30T02:33:49.389Z,16.90
2018-04-30T02:39:53.803Z,16.80
2018-04-30T02:45:58.953Z,16.60
2018-04-30T02:52:03.480Z,16.60
2018-04-30T02:58:08.696Z,16.50
2018-04-30T03:04:13.087Z,16.50
2018-04-30T03:10:17.485Z,16.40
2018-04-30T03:16:22.079Z,16.40
2018-04-30T03:22:26.469Z,16.30
2018-04-30T03:28:30.868Z,16.30
2018-04-30T03:34:35.292Z,16.20
2018-04-30T03:40:39.670Z,16.10
2018-04-30T03:46:44.070Z,15.90
2018-04-30T03:52:48.495Z,15.80
2018-04-30T03:58:52.915Z,15.90
2018-04-30T04:05:15.190Z,15.90
2018-04-30T04:11:19.580Z,15.90
2018-04-30T04:17:24.100Z,15.80
2018-04-30T04:23:28.471Z,15.70
2018-04-30T04:29:32.878Z,15.70
2018-04-30T04:35:37.328Z,15.60
2018-04-30T04:41:41.761Z,15.60
2018-04-30T04:47:46.132Z,15.60
2018-04-30T04:53:51.135Z,15.60
2018-04-30T04:59:55.559Z,15.70
2018-04-30T05:05:59.962Z,15.70
2018-04-30T05:12:04.423Z,15.80
2018-04-30T05:18:08.786Z,15.80
2018-04-30T05:24:13.155Z,15.90
2018-04-30T05:30:17.634Z,16.10
2018-04-30T05:36:23.082Z,16.10
2018-04-30T05:42:27.577Z,16.30
2018-04-30T05:48:32.749Z,17.10
2018-04-30T05:54:37.160Z,17.00
2018-04-30T06:00:41.649Z,17.10
2018-04-30T06:06:46.089Z,17.00
2018-04-30T06:12:50.497Z,17.10
2018-04-30T06:18:55.749Z,17.20
2018-04-30T06:25:00.128Z,17.20
2018-04-30T06:31:04.502Z,17.20
2018-04-30T06:37:08.873Z,17.20
2018-04-30T06:43:13.270Z,17.40
2018-04-30T06:49:18.406Z,17.80
2018-04-30T06:55:22.868Z,17.80
2018-04-30T07:01:27.261Z,17.60
2018-04-30T07:07:31.658Z,17.40
2018-04-30T07:13:36.083Z,17.30
2018-04-30T07:19:41.221Z,17.10
2018-04-30T07:25:45.592Z,17.10
2018-04-30T07:31:50.976Z,17.00
2018-04-30T07:37:55.336Z,16.80
2018-04-30T07:43:59.708Z,16.60
2018-04-30T07:50:04.252Z,16.60
2018-04-30T07:56:08.650Z,16.60
2018-04-30T08:02:13.805Z,16.50
2018-04-30T08:08:18.368Z,16.50
2018-04-30T08:14:23.436Z,16.70
2018-04-30T08:20:27.887Z,16.90
2018-04-30T08:26:32.994Z,16.80
2018-04-30T08:32:37.382Z,16.80
2018-04-30T08:38:41.759Z,16.70
2018-04-30T08:44:46.122Z,16.70
2018-04-30T08:50:51.339Z,16.60
2018-04-30T08:56:55.732Z,16.40
2018-04-30T09:03:00.173Z,16.50
2018-04-30T09:09:04.542Z,16.80
2018-04-30T09:15:08.983Z,17.20
2018-04-30T09:21:13.426Z,17.10
2018-04-30T09:27:17.936Z,16.50
2018-04-30T09:33:22.657Z,16.00
2018-04-30T09:39:27.030Z,16.00
2018-04-30T09:45:31.521Z,15.80
2018-04-30T09:51:35.871Z,15.80
2018-04-30T09:57:40.289Z,15.70
2018-04-30T10:03:44.603Z,15.80
2018-04-30T10:09:49.941Z,15.90
2018-04-30T10:15:54.397Z,15.90
2018-04-30T10:21:58.773Z,16.10
2018-04-30T10:28:03.148Z,16.20
2018-04-30T10:34:07.686Z,16.30
2018-04-30T10:40:12.203Z,16.30
2018-04-30T10:46:16.549Z,15.80
2018-04-30T10:52:22.018Z,15.60
2018-04-30T10:58:26.419Z,15.50
2018-04-30T11:04:31.583Z,16.00
2018-04-30T11:10:35.930Z,16.00
2018-04-30T11:16:41.174Z,16.90
2018-04-30T11:22:46.440Z,17.30
2018-04-30T11:28:50.911Z,17.20
2018-04-30T11:34:55.270Z,17.00
2018-04-30T11:40:59.756Z,16.90
2018-04-30T11:47:04.217Z,17.00
2018-04-30T11:53:09.311Z,15.50
2018-04-30T11:59:13.697Z,15.50
2018-04-30T12:05:18.227Z,15.90
2018-04-30T12:11:23.155Z,17.80
2018-04-30T12:17:28.462Z,19.40
2018-04-30T12:23:32.937Z,19.40
2018-04-30T12:29:37.328Z,18.60
2018-04-30T12:35:41.804Z,18.90
2018-04-30T12:41:46.179Z,18.80
2018-04-30T12:47:51.987Z,17.80
2018-04-30T12:53:56.379Z,17.10
2018-04-30T13:00:00.849Z,17.60
2018-04-30T13:06:05.222Z,17.70
2018-04-30T13:12:09.592Z,17.80
2018-04-30T13:18:14.030Z,17.90
2018-04-30T13:24:19.772Z,17.80
2018-04-30T13:30:24.994Z,17.70
2018-04-30T13:36:29.392Z,17.70
2018-04-30T13:42:33.757Z,17.60
2018-04-30T13:48:38.926Z,18.80
2018-04-30T13:54:43.299Z,18.80
2018-04-30T14:00:47.694Z,18.70
2018-04-30T14:06:52.269Z,21.30
2018-04-30T14:12:56.650Z,20.90
2018-04-30T14:19:01.001Z,21.20
2018-04-30T14:25:05.423Z,21.00
2018-04-30T14:31:10.570Z,21.50
2018-04-30T14:37:14.947Z,21.50
2018-04-30T14:43:19.368Z,20.80
2018-04-30T14:49:24.133Z,21.30
2018-04-30T14:55:28.490Z,21.50
2018-04-30T15:01:33.037Z,20.80
2018-04-30T15:07:37.500Z,21.40
2018-04-30T15:13:41.890Z,22.70
2018-04-30T15:19:46.346Z,23.10
2018-04-30T15:25:51.192Z,24.00
2018-04-30T15:31:56.359Z,20.00
2018-04-30T15:38:00.758Z,19.90
2018-04-30T15:44:05.185Z,19.30
2018-04-30T15:50:09.559Z,19.60
2018-04-30T15:56:13.929Z,20.30
2018-04-30T16:02:18.290Z,19.60
2018-04-30T16:08:23.538Z,19.10
2018-04-30T16:14:27.905Z,19.10
2018-04-30T16:20:32.255Z,18.80
2018-04-30T16:26:36.671Z,20.00
2018-04-30T16:32:41.078Z,22.40
2018-04-30T16:38:46.207Z,22.90
2018-04-30T16:44:50.740Z,22.90
2018-04-30T16:50:55.135Z,21.50
2018-04-30T16:57:00.340Z,18.50
2018-04-30T17:03:04.746Z,18.50
2018-04-30T17:09:09.195Z,18.80
2018-04-30T17:15:13.581Z,20.40
2018-04-30T17:21:17.977Z,21.10
2018-04-30T17:27:22.750Z,21.30
2018-04-30T17:33:27.986Z,21.00
2018-04-30T17:39:32.347Z,21.00
2018-04-30T17:45:36.744Z,20.70
2018-04-30T17:51:41.108Z,20.30
2018-04-30T17:57:45.503Z,19.70
2018-04-30T18:03:51.040Z,18.80
2018-04-30T18:09:55.551Z,18.80
2018-04-30T18:15:59.940Z,18.50
2018-04-30T18:22:04.317Z,17.40
2018-04-30T18:28:08.685Z,17.10
2018-04-30T18:34:13.052Z,16.50
2018-04-30T18:40:17.471Z,15.70
2018-04-30T18:46:22.670Z,14.90
2018-04-30T18:52:27.060Z,14.80
2018-04-30T18:58:31.415Z,14.50
2018-04-30T19:04:35.785Z,14.30
2018-04-30T19:10:41.045Z,13.80
2018-04-30T19:16:45.642Z,13.70
2018-04-30T19:22:50.133Z,13.30
2018-04-30T19:28:55.322Z,12.60
2018-04-30T19:35:00.439Z,12.30
2018-04-30T19:41:04.853Z,12.30
2018-04-30T19:47:09.222Z,12.10
2018-04-30T19:53:13.587Z,12.00
2018-04-30T19:59:18.034Z,12.10
2018-04-30T20:05:23.358Z,12.10
2018-04-30T20:11:27.768Z,12.20
2018-04-30T20:17:32.199Z,12.00
2018-04-30T20:23:36.603Z,11.80
2018-04-30T20:29:40.939Z,11.60
2018-04-30T20:35:45.330Z,11.40
2018-04-30T20:41:50.032Z,11.20
2018-04-30T20:47:54.540Z,11.10
2018-04-30T20:53:58.989Z,11.10
2018-04-30T21:00:03.427Z,11.00
2018-04-30T21:06:07.851Z,11.10
2018-04-30T21:12:12.223Z,11.10
2018-04-30T21:18:16.594Z,11.10
2018-04-30T21:24:21.126Z,11.00
2018-04-30T21:30:25.562Z,11.00
2018-04-30T21:36:29.907Z,11.00
2018-04-30T21:42:34.301Z,11.00
2018-04-30T21:48:38.673Z,11.10
2018-04-30T21:54:43.045Z,11.10
2018-04-30T22:00:47.429Z,11.40
2018-04-30T22:06:51.826Z,11.60
2018-04-30T22:12:56.971Z,12.30
2018-04-30T22:19:01.335Z,12.20
2018-04-30T22:25:05.803Z,12.50
2018-04-30T22:31:10.254Z,12.50
2018-04-30T22:37:15.464Z,12.20
2018-04-30T22:43:20.052Z,12.20
2018-04-30T22:49:24.531Z,12.10
2018-04-30T22:55:28.912Z,12.00
2018-04-30T23:01:33.431Z,12.00
2018-04-30T23:07:37.802Z,11.90
2018-04-30T23:13:42.238Z,11.80
2018-04-30T23:19:46.627Z,11.70
2018-04-30T23:25:50.978Z,11.70
2018-04-30T23:31:55.356Z,11.60
2018-04-30T23:37:59.717Z,11.60
2018-04-30T23:44:04.838Z,11.40
2018-04-30T23:50:09.195Z,11.40
2018-04-30T23:56:13.545Z,11.30
